Decoded Metar for LFBY (DAX in FRANCE) (IATA:N/A) | Meteo·Mobile Aviation Weather
aviador You're here:

LFBY Decoded Metar

DAX in FRANCE
Report Time2018-09-24 17:30:00
UTC Time2018-09-24 17:58:45
Flight Rules vfr VFR
Wind340° at 03 kt
W.Decomp.*RWY 26: 0.5 kt HW 3.0 kt RCW
W.Rank340° ranks 33
Current wind is below 340° avg. (4.0)
Visibility9999 m
Phenomena:N/A
Clouds:N/A
Expected CloudBase > 4,400 ft AGL from Temp-Dew spread
CeilingNone
Temp19°C (ISA +4)
Dew Point08°C (49% RH)
AAT17.5°C
QNH1028 hPa
Density Alt243 ft
Elevation105 ft
Report Wrong Elevation
Raw Report
METAR LFBY 241730Z AUTO 34003KT 270V040 9999 // ////// 19/08 Q1028=

Extra information for LFBY:More info

Metar Taf Metar & Taf Last 4 Metars F.Rules Stats Wind Profile Meteogram Temp Stats Airport Information Weather charts Add Link Nearby VenuesMetar ALERT Operation Metar Decoded Social comments